sensor_id;sensor_type;location;lat;lon;timestamp;pressure;altitude;pressure_sealevel;temperature;humidity
31357;BME280;60001;48.404;11.738;2022-12-10T00:00:27;94976.16;;;2.36;81.47
31357;BME280;60001;48.404;11.738;2022-12-10T00:01:58;94980.16;;;2.39;81.32
31357;BME280;60001;48.404;11.738;2022-12-10T00:03:30;94984.09;;;2.41;81.34
31357;BME280;60001;48.404;11.738;2022-12-10T00:05:01;94975.50;;;2.41;81.24
31357;BME280;60001;48.404;11.738;2022-12-10T00:06:35;94976.50;;;2.40;81.15
31357;BME280;60001;48.404;11.738;2022-12-10T00:08:08;94973.56;;;2.36;81.29
31357;BME280;60001;48.404;11.738;2022-12-10T00:09:40;94979.81;;;2.35;80.99
31357;BME280;60001;48.404;11.738;2022-12-10T00:11:14;94969.63;;;2.34;81.00
31357;BME280;60001;48.404;11.738;2022-12-10T00:12:45;94968.53;;;2.30;81.08
31357;BME280;60001;48.404;11.738;2022-12-10T00:14:17;94959.09;;;2.29;80.95
31357;BME280;60001;48.404;11.738;2022-12-10T00:15:48;94960.13;;;2.28;81.49
31357;BME280;60001;48.404;11.738;2022-12-10T00:17:19;94966.13;;;2.28;81.31
31357;BME280;60001;48.404;11.738;2022-12-10T00:18:52;94967.16;;;2.27;81.27
31357;BME280;60001;48.404;11.738;2022-12-10T00:20:23;94972.38;;;2.27;81.14
31357;BME280;60001;48.404;11.738;2022-12-10T00:21:55;94978.38;;;2.28;81.53
31357;BME280;60001;48.404;11.738;2022-12-10T00:23:28;94982.88;;;2.32;81.38
31357;BME280;60001;48.404;11.738;2022-12-10T00:24:58;94985.81;;;2.36;81.30
31357;BME280;60001;48.404;11.738;2022-12-10T00:26:33;94981.97;;;2.38;81.41
31357;BME280;60001;48.404;11.738;2022-12-10T00:28:05;94984.56;;;2.38;81.50
31357;BME280;60001;48.404;11.738;2022-12-10T00:29:37;94960.72;;;2.30;81.45
31357;BME280;60001;48.404;11.738;2022-12-10T00:31:11;94981.97;;;2.38;81.28
31357;BME280;60001;48.404;11.738;2022-12-10T00:32:42;94995.00;;;2.38;81.30
31357;BME280;60001;48.404;11.738;2022-12-10T00:34:14;94979.59;;;2.37;81.28
31357;BME280;60001;48.404;11.738;2022-12-10T00:35:46;94981.97;;;2.38;81.47
31357;BME280;60001;48.404;11.738;2022-12-10T00:37:17;94979.91;;;2.40;81.13
31357;BME280;60001;48.404;11.738;2022-12-10T00:38:51;94977.53;;;2.39;81.10
31357;BME280;60001;48.404;11.738;2022-12-10T00:40:22;94968.59;;;2.35;80.99
31357;BME280;60001;48.404;11.738;2022-12-10T00:41:54;94970.00;;;2.26;80.89
31357;BME280;60001;48.404;11.738;2022-12-10T00:43:26;94974.41;;;2.25;80.94
31357;BME280;60001;48.404;11.738;2022-12-10T00:44:57;94965.25;;;2.23;80.51
31357;BME280;60001;48.404;11.738;2022-12-10T00:46:29;94979.06;;;2.23;81.11
31357;BME280;60001;48.404;11.738;2022-12-10T00:48:00;94971.03;;;2.25;80.65
31357;BME280;60001;48.404;11.738;2022-12-10T00:49:32;94973.94;;;2.28;80.69
31357;BME280;60001;48.404;11.738;2022-12-10T00:51:06;94968.72;;;2.28;81.07
31357;BME280;60001;48.404;11.738;2022-12-10T00:52:38;94972.13;;;2.29;80.52
31357;BME280;60001;48.404;11.738;2022-12-10T00:54:11;94971.91;;;2.30;80.51
31357;BME280;60001;48.404;11.738;2022-12-10T00:55:43;94977.69;;;2.32;80.37
31357;BME280;60001;48.404;11.738;2022-12-10T00:57:13;94972.47;;;2.32;80.23
31357;BME280;60001;48.404;11.738;2022-12-10T00:58:47;94982.66;;;2.34;80.38
31357;BME280;60001;48.404;11.738;2022-12-10T01:00:20;94990.22;;;2.35;80.74
31357;BME280;60001;48.404;11.738;2022-12-10T01:01:51;94997.34;;;2.40;80.60
31357;BME280;60001;48.404;11.738;2022-12-10T01:03:23;94998.94;;;2.41;81.05
31357;BME280;60001;48.404;11.738;2022-12-10T01:04:54;95009.13;;;2.42;80.86
31357;BME280;60001;48.404;11.738;2022-12-10T01:06:28;95001.88;;;2.44;80.65
31357;BME280;60001;48.404;11.738;2022-12-10T01:08:00;94998.25;;;2.45;80.74
31357;BME280;60001;48.404;11.738;2022-12-10T01:09:33;95006.06;;;2.45;80.49
31357;BME280;60001;48.404;11.738;2022-12-10T01:11:05;95002.44;;;2.46;80.69
31357;BME280;60001;48.404;11.738;2022-12-10T01:12:36;95004.00;;;2.47;80.51
31357;BME280;60001;48.404;11.738;2022-12-10T01:14:10;95012.63;;;2.48;80.79
31357;BME280;60001;48.404;11.738;2022-12-10T01:15:42;95013.16;;;2.50;81.04
31357;BME280;60001;48.404;11.738;2022-12-10T01:17:13;95012.38;;;2.50;80.85
31357;BME280;60001;48.404;11.738;2022-12-10T01:18:45;95012.84;;;2.46;79.87
31357;BME280;60001;48.404;11.738;2022-12-10T01:20:16;95011.50;;;2.44;80.32
31357;BME280;60001;48.404;11.738;2022-12-10T01:21:50;95010.63;;;2.38;79.86
31357;BME280;60001;48.404;11.738;2022-12-10T01:23:21;95006.66;;;2.36;80.75
31357;BME280;60001;48.404;11.738;2022-12-10T01:24:54;94994.66;;;2.35;80.33
31357;BME280;60001;48.404;11.738;2022-12-10T01:26:28;94989.91;;;2.32;80.57
31357;BME280;60001;48.404;11.738;2022-12-10T01:28:00;94997.84;;;2.37;80.70
31357;BME280;60001;48.404;11.738;2022-12-10T01:29:32;94993.41;;;2.37;81.15
31357;BME280;60001;48.404;11.738;2022-12-10T01:31:08;95001.22;;;2.37;80.78
31357;BME280;60001;48.404;11.738;2022-12-10T01:32:40;95008.56;;;2.40;80.61
31357;BME280;60001;48.404;11.738;2022-12-10T01:34:13;95012.19;;;2.39;81.00
31357;BME280;60001;48.404;11.738;2022-12-10T01:35:45;95007.78;;;2.40;81.20
31357;BME280;60001;48.404;11.738;2022-12-10T01:37:16;95015.34;;;2.41;81.28
31357;BME280;60001;48.404;11.738;2022-12-10T01:38:48;95012.19;;;2.39;80.98
31357;BME280;60001;48.404;11.738;2022-12-10T01:40:22;95011.16;;;2.40;81.03
31357;BME280;60001;48.404;11.738;2022-12-10T01:41:56;95016.38;;;2.40;81.26
31357;BME280;60001;48.404;11.738;2022-12-10T01:43:49;95019.78;;;2.41;80.92
31357;BME280;60001;48.404;11.738;2022-12-10T01:45:21;95025.78;;;2.41;81.45
31357;BME280;60001;48.404;11.738;2022-12-10T01:46:55;95033.94;;;2.45;81.19
31357;BME280;60001;48.404;11.738;2022-12-10T01:48:27;95027.13;;;2.44;80.58
31357;BME280;60001;48.404;11.738;2022-12-10T01:49:59;95020.56;;;2.41;81.02
31357;BME280;60001;48.404;11.738;2022-12-10T01:51:35;95022.06;;;2.37;80.75
31357;BME280;60001;48.404;11.738;2022-12-10T01:53:08;95016.28;;;2.35;80.50
31357;BME280;60001;48.404;11.738;2022-12-10T01:54:43;95014.69;;;2.34;80.98
31357;BME280;60001;48.404;11.738;2022-12-10T01:56:18;95018.88;;;2.35;81.24
31357;BME280;60001;48.404;11.738;2022-12-10T01:57:50;95021.47;;;2.35;80.72
31357;BME280;60001;48.404;11.738;2022-12-10T01:59:21;95018.88;;;2.35;81.31
31357;BME280;60001;48.404;11.738;2022-12-10T02:01:05;95017.53;;;2.33;80.78
31357;BME280;60001;48.404;11.738;2022-12-10T02:02:55;94998.88;;;2.24;81.20
31357;BME280;60001;48.404;11.738;2022-12-10T02:04:36;95008.59;;;2.29;81.20
31357;BME280;60001;48.404;11.738;2022-12-10T02:06:27;95009.50;;;2.34;81.52
31357;BME280;60001;48.404;11.738;2022-12-10T02:08:21;95003.25;;;2.35;81.09
31357;BME280;60001;48.404;11.738;2022-12-10T02:10:03;95014.69;;;2.34;81.31
31357;BME280;60001;48.404;11.738;2022-12-10T02:11:46;95007.13;;;2.33;81.28
31357;BME280;60001;48.404;11.738;2022-12-10T02:13:27;95011.00;;;2.30;80.46
31357;BME280;60001;48.404;11.738;2022-12-10T02:15:06;94995.03;;;2.15;80.79
31357;BME280;60001;48.404;11.738;2022-12-10T02:16:47;95011.31;;;2.22;81.55
31357;BME280;60001;48.404;11.738;2022-12-10T02:18:29;95016.09;;;2.25;81.67
31357;BME280;60001;48.404;11.738;2022-12-10T02:20:10;95004.34;;;2.23;81.62
31357;BME280;60001;48.404;11.738;2022-12-10T02:21:49;94999.69;;;2.25;81.60
31357;BME280;60001;48.404;11.738;2022-12-10T02:23:26;95000.47;;;2.25;81.58
31357;BME280;60001;48.404;11.738;2022-12-10T02:25:02;95010.41;;;2.28;81.69
31357;BME280;60001;48.404;11.738;2022-12-10T02:26:45;95007.00;;;2.28;81.61
31357;BME280;60001;48.404;11.738;2022-12-10T02:28:27;95018.81;;;2.30;81.82
31357;BME280;60001;48.404;11.738;2022-12-10T02:30:04;95011.97;;;2.29;81.48
31357;BME280;60001;48.404;11.738;2022-12-10T02:31:40;95014.38;;;2.31;81.10
31357;BME280;60001;48.404;11.738;2022-12-10T02:33:16;95015.16;;;2.31;81.31
31357;BME280;60001;48.404;11.738;2022-12-10T02:34:53;95017.53;;;2.33;81.26
31357;BME280;60001;48.404;11.738;2022-12-10T02:36:30;95012.09;;;2.34;81.85
31357;BME280;60001;48.404;11.738;2022-12-10T02:38:09;94999.53;;;2.31;81.71
31357;BME280;60001;48.404;11.738;2022-12-10T02:39:47;95001.81;;;2.28;81.42
31357;BME280;60001;48.404;11.738;2022-12-10T02:41:27;95003.06;;;2.25;81.11
31357;BME280;60001;48.404;11.738;2022-12-10T02:43:01;95010.88;;;2.25;81.71
31357;BME280;60001;48.404;11.738;2022-12-10T02:44:37;94988.84;;;2.16;81.62
31357;BME280;60001;48.404;11.738;2022-12-10T02:46:13;94996.03;;;2.26;81.78
31357;BME280;60001;48.404;11.738;2022-12-10T02:47:46;95000.13;;;2.22;81.08
31357;BME280;60001;48.404;11.738;2022-12-10T02:49:18;95007.16;;;2.21;81.54
31357;BME280;60001;48.404;11.738;2022-12-10T02:50:50;95003.75;;;2.20;81.54
31357;BME280;60001;48.404;11.738;2022-12-10T02:52:23;94985.34;;;2.10;81.26
31357;BME280;60001;48.404;11.738;2022-12-10T02:54:00;95010.53;;;2.22;81.70
31357;BME280;60001;48.404;11.738;2022-12-10T02:55:47;95004.34;;;2.23;82.15
31357;BME280;60001;48.404;11.738;2022-12-10T02:57:32;95010.53;;;2.22;82.03
31357;BME280;60001;48.404;11.738;2022-12-10T02:59:15;95008.50;;;2.24;81.48
31357;BME280;60001;48.404;11.738;2022-12-10T03:00:58;95011.56;;;2.20;81.50
31357;BME280;60001;48.404;11.738;2022-12-10T03:02:43;95000.13;;;2.22;81.62
31357;BME280;60001;48.404;11.738;2022-12-10T03:04:24;94995.94;;;2.20;81.71
31357;BME280;60001;48.404;11.738;2022-12-10T03:06:04;94998.53;;;2.20;81.70
31357;BME280;60001;48.404;11.738;2022-12-10T03:07:43;94989.38;;;2.18;81.69
31357;BME280;60001;48.404;11.738;2022-12-10T03:09:23;94998.22;;;2.17;81.56
31357;BME280;60001;48.404;11.738;2022-12-10T03:11:01;94998.44;;;2.15;82.28
31357;BME280;60001;48.404;11.738;2022-12-10T03:12:39;94998.22;;;2.17;81.74
31357;BME280;60001;48.404;11.738;2022-12-10T03:14:18;94996.66;;;2.16;82.37
31357;BME280;60001;48.404;11.738;2022-12-10T03:15:54;95001.84;;;2.16;82.27
31357;BME280;60001;48.404;11.738;2022-12-10T03:17:30;94998.66;;;2.14;82.51
31357;BME280;60001;48.404;11.738;2022-12-10T03:19:07;95006.25;;;2.15;82.59
31357;BME280;60001;48.404;11.738;2022-12-10T03:20:44;95006.81;;;2.17;82.21
31357;BME280;60001;48.404;11.738;2022-12-10T03:22:19;95004.22;;;2.17;82.32
31357;BME280;60001;48.404;11.738;2022-12-10T03:23:51;95002.41;;;2.18;82.15
31357;BME280;60001;48.404;11.738;2022-12-10T03:25:25;94996.66;;;2.16;81.82
31357;BME280;60001;48.404;11.738;2022-12-10T03:26:58;94986.91;;;2.11;81.76
31357;BME280;60001;48.404;11.738;2022-12-10T03:28:34;94985.34;;;2.10;82.04
31357;BME280;60001;48.404;11.738;2022-12-10T03:30:09;94985.78;;;2.07;82.51
31357;BME280;60001;48.404;11.738;2022-12-10T03:31:41;94977.41;;;2.05;82.81
31357;BME280;60001;48.404;11.738;2022-12-10T03:33:14;94978.09;;;2.01;82.35
31357;BME280;60001;48.404;11.738;2022-12-10T03:34:50;94980.94;;;1.99;82.95
31357;BME280;60001;48.404;11.738;2022-12-10T03:36:24;94981.16;;;1.98;82.62
31357;BME280;60001;48.404;11.738;2022-12-10T03:37:58;94988.44;;;1.96;83.04
31357;BME280;60001;48.404;11.738;2022-12-10T03:39:29;94988.75;;;1.99;82.63
31357;BME280;60001;48.404;11.738;2022-12-10T03:41:01;94997.34;;;2.00;83.11
31357;BME280;60001;48.404;11.738;2022-12-10T03:42:35;94993.63;;;1.96;82.95
31357;BME280;60001;48.404;11.738;2022-12-10T03:44:08;94993.16;;;1.99;82.61
31357;BME280;60001;48.404;11.738;2022-12-10T03:45:40;94996.00;;;1.97;83.19
31357;BME280;60001;48.404;11.738;2022-12-10T03:47:14;94992.59;;;1.97;82.83
31357;BME280;60001;48.404;11.738;2022-12-10T03:48:46;94989.41;;;1.95;82.89
31357;BME280;60001;48.404;11.738;2022-12-10T03:50:19;94979.25;;;1.93;82.85
31357;BME280;60001;48.404;11.738;2022-12-10T03:51:50;94980.63;;;1.96;82.97
31357;BME280;60001;48.404;11.738;2022-12-10T03:53:21;94987.84;;;1.93;83.49
31357;BME280;60001;48.404;11.738;2022-12-10T03:54:53;94989.66;;;1.93;82.85
31357;BME280;60001;48.404;11.738;2022-12-10T03:56:24;94989.34;;;1.89;82.73
31357;BME280;60001;48.404;11.738;2022-12-10T03:57:56;94996.13;;;1.90;83.54
31357;BME280;60001;48.404;11.738;2022-12-10T03:59:27;94997.47;;;1.93;83.53
31357;BME280;60001;48.404;11.738;2022-12-10T04:00:59;94996.44;;;1.94;83.39
31357;BME280;60001;48.404;11.738;2022-12-10T04:02:30;95001.44;;;1.96;83.22
31357;BME280;60001;48.404;11.738;2022-12-10T04:04:02;94994.88;;;1.93;83.29
31357;BME280;60001;48.404;11.738;2022-12-10T04:05:36;94987.53;;;1.90;83.11
31357;BME280;60001;48.404;11.738;2022-12-10T04:07:08;94998.50;;;1.92;83.09
31357;BME280;60001;48.404;11.738;2022-12-10T04:08:39;94992.25;;;1.93;83.27
31357;BME280;60001;48.404;11.738;2022-12-10T04:10:10;94981.78;;;1.88;83.13
31357;BME280;60001;48.404;11.738;2022-12-10T04:11:43;94987.28;;;1.91;82.74
31357;BME280;60001;48.404;11.738;2022-12-10T04:13:14;94987.53;;;1.90;83.70
31357;BME280;60001;48.404;11.738;2022-12-10T04:15:03;94989.34;;;1.89;83.57
31357;BME280;60001;48.404;11.738;2022-12-10T04:16:53;94989.09;;;1.91;83.18
31357;BME280;60001;48.404;11.738;2022-12-10T04:18:25;94995.66;;;1.93;83.61
31357;BME280;60001;48.404;11.738;2022-12-10T04:19:56;94992.59;;;1.97;83.86
31357;BME280;60001;48.404;11.738;2022-12-10T04:21:30;94992.38;;;1.98;83.75
31357;BME280;60001;48.404;11.738;2022-12-10T04:23:20;94990.56;;;1.99;83.33
31357;BME280;60001;48.404;11.738;2022-12-10T04:25:11;94993.84;;;1.94;83.31
31357;BME280;60001;48.404;11.738;2022-12-10T04:27:04;95002.44;;;1.95;83.43
31357;BME280;60001;48.404;11.738;2022-12-10T04:28:36;95003.03;;;1.97;83.37
31357;BME280;60001;48.404;11.738;2022-12-10T04:30:10;95014.22;;;1.97;83.05
31357;BME280;60001;48.404;11.738;2022-12-10T04:31:41;95012.97;;;2.00;83.52
31357;BME280;60001;48.404;11.738;2022-12-10T04:33:12;95000.19;;;1.98;83.56
31357;BME280;60001;48.404;11.738;2022-12-10T04:34:44;94999.16;;;1.99;83.71
31357;BME280;60001;48.404;11.738;2022-12-10T04:36:15;94998.94;;;2.01;82.88
31357;BME280;60001;48.404;11.738;2022-12-10T04:37:48;95004.59;;;1.98;83.47
31357;BME280;60001;48.404;11.738;2022-12-10T04:39:19;95002.22;;;1.96;83.19
31357;BME280;60001;48.404;11.738;2022-12-10T04:40:50;95001.09;;;1.92;83.11
31357;BME280;60001;48.404;11.738;2022-12-10T04:42:22;95003.94;;;1.90;82.92
31357;BME280;60001;48.404;11.738;2022-12-10T04:43:54;94998.50;;;1.92;83.87
31357;BME280;60001;48.404;11.738;2022-12-10T04:45:25;95001.09;;;1.92;83.39
31357;BME280;60001;48.404;11.738;2022-12-10T04:46:57;95003.47;;;1.93;83.41
31357;BME280;60001;48.404;11.738;2022-12-10T04:48:29;95000.84;;;1.93;83.70
31357;BME280;60001;48.404;11.738;2022-12-10T04:50:01;95012.41;;;1.98;83.66
31357;BME280;60001;48.404;11.738;2022-12-10T04:51:33;95015.56;;;2.00;83.42
31357;BME280;60001;48.404;11.738;2022-12-10T04:53:07;95020.09;;;2.04;84.07
31357;BME280;60001;48.404;11.738;2022-12-10T04:54:38;95010.94;;;2.02;83.70
31357;BME280;60001;48.404;11.738;2022-12-10T04:56:10;95016.22;;;2.07;84.03
31357;BME280;60001;48.404;11.738;2022-12-10T04:57:41;95014.88;;;2.04;83.13
31357;BME280;60001;48.404;11.738;2022-12-10T04:59:14;95020.66;;;2.06;83.39
31357;BME280;60001;48.404;11.738;2022-12-10T05:00:45;95026.66;;;2.07;83.01
31357;BME280;60001;48.404;11.738;2022-12-10T05:02:16;95017.72;;;2.03;83.73
31357;BME280;60001;48.404;11.738;2022-12-10T05:03:49;95017.50;;;2.04;83.09
31357;BME280;60001;48.404;11.738;2022-12-10T05:05:20;95016.47;;;2.05;83.51
31357;BME280;60001;48.404;11.738;2022-12-10T05:06:51;95014.41;;;2.07;83.66
31357;BME280;60001;48.404;11.738;2022-12-10T05:08:24;95010.47;;;2.05;83.42
31357;BME280;60001;48.404;11.738;2022-12-10T05:09:55;95012.06;;;2.06;83.68
31357;BME280;60001;48.404;11.738;2022-12-10T05:11:30;95006.84;;;2.06;83.35
31357;BME280;60001;48.404;11.738;2022-12-10T05:13:01;95008.41;;;2.07;83.59
31357;BME280;60001;48.404;11.738;2022-12-10T05:14:32;95017.59;;;2.09;83.84
31357;BME280;60001;48.404;11.738;2022-12-10T05:16:06;95012.94;;;2.11;83.63
31357;BME280;60001;48.404;11.738;2022-12-10T05:17:38;95002.28;;;2.13;83.57
31357;BME280;60001;48.404;11.738;2022-12-10T05:19:10;95005.94;;;2.12;83.39
31357;BME280;60001;48.404;11.738;2022-12-10T05:20:42;95009.00;;;2.09;82.97
31357;BME280;60001;48.404;11.738;2022-12-10T05:22:12;94986.50;;;2.03;83.23
31357;BME280;60001;48.404;11.738;2022-12-10T05:24:04;94995.09;;;2.03;83.18
31357;BME280;60001;48.404;11.738;2022-12-10T05:25:35;95000.28;;;2.03;83.02
31357;BME280;60001;48.404;11.738;2022-12-10T05:27:23;94998.38;;;1.99;83.53
31357;BME280;60001;48.404;11.738;2022-12-10T05:28:56;94995.44;;;1.95;83.52
31357;BME280;60001;48.404;11.738;2022-12-10T05:30:28;95001.88;;;1.92;83.50
31357;BME280;60001;48.404;11.738;2022-12-10T05:31:59;94998.72;;;1.90;83.75
31357;BME280;60001;48.404;11.738;2022-12-10T05:33:31;95006.84;;;1.94;83.55
31357;BME280;60001;48.404;11.738;2022-12-10T05:35:04;95004.03;;;1.96;83.39
31357;BME280;60001;48.404;11.738;2022-12-10T05:36:35;95002.00;;;1.98;83.33
31357;BME280;60001;48.404;11.738;2022-12-10T05:38:07;94994.97;;;1.98;83.66
31357;BME280;60001;48.404;11.738;2022-12-10T05:39:42;94993.72;;;2.01;83.83
31357;BME280;60001;48.404;11.738;2022-12-10T05:41:15;94996.31;;;2.01;83.78
31357;BME280;60001;48.404;11.738;2022-12-10T05:42:47;94987.16;;;1.98;83.11
31357;BME280;60001;48.404;11.738;2022-12-10T05:44:19;94996.78;;;1.98;83.76
31357;BME280;60001;48.404;11.738;2022-12-10T05:45:51;94991.72;;;1.91;82.98
31357;BME280;60001;48.404;11.738;2022-12-10T05:47:23;94991.34;;;1.87;83.35
31357;BME280;60001;48.404;11.738;2022-12-10T05:48:55;94994.78;;;1.88;83.55
31357;BME280;60001;48.404;11.738;2022-12-10T05:50:27;95003.94;;;1.90;83.97
31357;BME280;60001;48.404;11.738;2022-12-10T05:51:58;95013.88;;;1.93;83.62
31357;BME280;60001;48.404;11.738;2022-12-10T05:53:30;95016.59;;;1.99;83.89
31357;BME280;60001;48.404;11.738;2022-12-10T05:55:02;95029.16;;;2.02;83.66
31357;BME280;60001;48.404;11.738;2022-12-10T05:56:34;95023.16;;;2.01;83.96
31357;BME280;60001;48.404;11.738;2022-12-10T05:58:06;95035.84;;;2.09;83.74
31357;BME280;60001;48.404;11.738;2022-12-10T05:59:38;95029.38;;;2.12;83.82
31357;BME280;60001;48.404;11.738;2022-12-10T06:01:12;95034.56;;;2.12;84.07
31357;BME280;60001;48.404;11.738;2022-12-10T06:02:43;95028.47;;;2.06;82.97
31357;BME280;60001;48.404;11.738;2022-12-10T06:04:15;95019.31;;;2.04;83.45
31357;BME280;60001;48.404;11.738;2022-12-10T06:05:47;95020.88;;;2.05;83.50
31357;BME280;60001;48.404;11.738;2022-12-10T06:07:18;95024.28;;;2.05;83.13
31357;BME280;60001;48.404;11.738;2022-12-10T06:08:50;95027.69;;;2.06;83.27
31357;BME280;60001;48.404;11.738;2022-12-10T06:10:22;95027.69;;;2.06;83.68
31357;BME280;60001;48.404;11.738;2022-12-10T06:11:54;95027.13;;;2.04;83.72
31357;BME280;60001;48.404;11.738;2022-12-10T06:13:26;95022.94;;;2.03;83.59
31357;BME280;60001;48.404;11.738;2022-12-10T06:14:58;95025.75;;;2.01;82.85
31357;BME280;60001;48.404;11.738;2022-12-10T06:16:30;95025.19;;;1.99;83.56
31357;BME280;60001;48.404;11.738;2022-12-10T06:18:02;95025.44;;;1.98;83.30
31357;BME280;60001;48.404;11.738;2022-12-10T06:19:34;95025.44;;;1.98;83.47
31357;BME280;60001;48.404;11.738;2022-12-10T06:21:07;95022.34;;;2.01;83.43
31357;BME280;60001;48.404;11.738;2022-12-10T06:22:38;95021.56;;;2.00;83.17
31357;BME280;60001;48.404;11.738;2022-12-10T06:24:10;95024.16;;;2.00;83.13
31357;BME280;60001;48.404;11.738;2022-12-10T06:25:43;95032.22;;;1.99;83.52
31357;BME280;60001;48.404;11.738;2022-12-10T06:27:15;95023.06;;;1.96;83.37
31357;BME280;60001;48.404;11.738;2022-12-10T06:28:47;95029.38;;;2.00;83.26
31357;BME280;60001;48.404;11.738;2022-12-10T06:30:18;95028.16;;;2.03;83.33
31357;BME280;60001;48.404;11.738;2022-12-10T06:31:50;95028.16;;;2.03;83.39
31357;BME280;60001;48.404;11.738;2022-12-10T06:33:22;95027.34;;;2.02;83.60
31357;BME280;60001;48.404;11.738;2022-12-10T06:34:54;95033.56;;;2.01;83.17
31357;BME280;60001;48.404;11.738;2022-12-10T06:36:25;95028.16;;;2.03;83.86
31357;BME280;60001;48.404;11.738;2022-12-10T06:37:57;95023.72;;;2.03;83.68
31357;BME280;60001;48.404;11.738;2022-12-10T06:39:29;95027.13;;;2.04;83.50
31357;BME280;60001;48.404;11.738;2022-12-10T06:41:03;95026.66;;;2.07;83.34
31357;BME280;60001;48.404;11.738;2022-12-10T06:42:35;95033.44;;;2.08;83.63
31357;BME280;60001;48.404;11.738;2022-12-10T06:44:07;95021.34;;;2.02;83.12
31357;BME280;60001;48.404;11.738;2022-12-10T06:45:38;95028.03;;;2.09;83.00
31357;BME280;60001;48.404;11.738;2022-12-10T06:47:09;95030.03;;;2.07;83.04
31357;BME280;60001;48.404;11.738;2022-12-10T06:48:42;95022.94;;;2.03;83.67
31357;BME280;60001;48.404;11.738;2022-12-10T06:50:12;95041.81;;;2.10;83.83
31357;BME280;60001;48.404;11.738;2022-12-10T06:51:44;95038.19;;;2.11;83.16
31357;BME280;60001;48.404;11.738;2022-12-10T06:53:15;95034.47;;;2.07;82.93
31357;BME280;60001;48.404;11.738;2022-12-10T06:54:47;95037.19;;;2.12;83.22
31357;BME280;60001;48.404;11.738;2022-12-10T06:56:20;95037.41;;;2.10;83.53
31357;BME280;60001;48.404;11.738;2022-12-10T06:57:52;95036.03;;;2.08;82.72
31357;BME280;60001;48.404;11.738;2022-12-10T06:59:24;95024.16;;;2.00;82.67
31357;BME280;60001;48.404;11.738;2022-12-10T07:01:02;95032.09;;;2.05;83.16
31357;BME280;60001;48.404;11.738;2022-12-10T07:02:34;95026.88;;;2.05;83.13
31357;BME280;60001;48.404;11.738;2022-12-10T07:04:06;95035.84;;;2.09;83.68
31357;BME280;60001;48.404;11.738;2022-12-10T07:05:38;95036.63;;;2.10;83.39
31357;BME280;60001;48.404;11.738;2022-12-10T07:07:09;95034.34;;;2.13;82.91
31357;BME280;60001;48.404;11.738;2022-12-10T07:08:41;95031.50;;;2.15;83.09
31357;BME280;60001;48.404;11.738;2022-12-10T07:10:13;95033.66;;;2.18;83.83
31357;BME280;60001;48.404;11.738;2022-12-10T07:11:47;95035.25;;;2.19;83.32
31357;BME280;60001;48.404;11.738;2022-12-10T07:13:19;95036.03;;;2.19;82.93
31357;BME280;60001;48.404;11.738;2022-12-10T07:14:50;95038.41;;;2.21;83.63
31357;BME280;60001;48.404;11.738;2022-12-10T07:16:24;95029.00;;;2.20;82.71
31357;BME280;60001;48.404;11.738;2022-12-10T07:17:56;95029.47;;;2.17;82.61
31357;BME280;60001;48.404;11.738;2022-12-10T07:19:28;95035.13;;;2.14;83.10
31357;BME280;60001;48.404;11.738;2022-12-10T07:21:00;95034.09;;;2.15;82.94
31357;BME280;60001;48.404;11.738;2022-12-10T07:22:30;95040.09;;;2.15;82.72
31357;BME280;60001;48.404;11.738;2022-12-10T07:24:05;95040.44;;;2.19;82.54
31357;BME280;60001;48.404;11.738;2022-12-10T07:25:37;95039.66;;;2.18;83.01
31357;BME280;60001;48.404;11.738;2022-12-10T07:27:10;95041.47;;;2.18;83.20
31357;BME280;60001;48.404;11.738;2022-12-10T07:28:42;95046.44;;;2.19;83.42
31357;BME280;60001;48.404;11.738;2022-12-10T07:30:14;95043.59;;;2.21;83.26
31357;BME280;60001;48.404;11.738;2022-12-10T07:31:47;95047.09;;;2.27;83.58
31357;BME280;60001;48.404;11.738;2022-12-10T07:33:18;95045.28;;;2.27;83.26
31357;BME280;60001;48.404;11.738;2022-12-10T07:34:50;95043.25;;;2.29;83.81
31357;BME280;60001;48.404;11.738;2022-12-10T07:36:22;95046.19;;;2.33;83.44
31357;BME280;60001;48.404;11.738;2022-12-10T07:37:54;95035.44;;;2.29;82.96
31357;BME280;60001;48.404;11.738;2022-12-10T07:39:26;95041.44;;;2.30;82.74
31357;BME280;60001;48.404;11.738;2022-12-10T07:41:02;95045.84;;;2.29;83.41
31357;BME280;60001;48.404;11.738;2022-12-10T07:42:35;95050.25;;;2.29;83.05
31357;BME280;60001;48.404;11.738;2022-12-10T07:44:10;95036.25;;;2.30;83.03
31357;BME280;60001;48.404;11.738;2022-12-10T07:45:42;95042.38;;;2.24;82.59
31357;BME280;60001;48.404;11.738;2022-12-10T07:47:15;95044.50;;;2.27;82.85
31357;BME280;60001;48.404;11.738;2022-12-10T07:48:48;95042.38;;;2.24;82.40
31357;BME280;60001;48.404;11.738;2022-12-10T07:50:19;95048.38;;;2.24;82.48
31357;BME280;60001;48.404;11.738;2022-12-10T07:51:51;95047.91;;;2.27;82.54
31357;BME280;60001;48.404;11.738;2022-12-10T07:53:22;95054.69;;;2.28;82.72
31357;BME280;60001;48.404;11.738;2022-12-10T07:54:54;95053.66;;;2.29;83.24
31357;BME280;60001;48.404;11.738;2022-12-10T07:56:26;95056.06;;;2.31;82.45
31357;BME280;60001;48.404;11.738;2022-12-10T07:57:59;95055.25;;;2.30;82.64
31357;BME280;60001;48.404;11.738;2022-12-10T07:59:31;95049.03;;;2.31;82.33
31357;BME280;60001;48.404;11.738;2022-12-10T08:01:07;95052.97;;;2.34;82.37
31357;BME280;60001;48.404;11.738;2022-12-10T08:02:38;95052.97;;;2.34;83.06
31357;BME280;60001;48.404;11.738;2022-12-10T08:04:10;95050.94;;;2.36;82.52
31357;BME280;60001;48.404;11.738;2022-12-10T08:05:42;95054.78;;;2.33;82.89
31357;BME280;60001;48.404;11.738;2022-12-10T08:07:14;95057.41;;;2.33;82.66
31357;BME280;60001;48.404;11.738;2022-12-10T08:08:46;95055.34;;;2.35;82.79
31357;BME280;60001;48.404;11.738;2022-12-10T08:10:18;95055.94;;;2.37;82.44
31357;BME280;60001;48.404;11.738;2022-12-10T08:11:50;95059.09;;;2.39;82.36
31357;BME280;60001;48.404;11.738;2022-12-10T08:13:25;95055.47;;;2.40;82.99
31357;BME280;60001;48.404;11.738;2022-12-10T08:14:56;95048.44;;;2.41;82.31
31357;BME280;60001;48.404;11.738;2022-12-10T08:16:29;95051.03;;;2.41;82.15